sensor_id;sensor_type;location;lat;lon;timestamp;pressure;altitude;pressure_sealevel;temperature;humidity
55679;BME280;41573;51.446;-2.018;2023-01-26T15:22:31;98657.72;;;8.83;100.00
55679;BME280;41573;51.446;-2.018;2023-01-26T15:25:03;98768.22;;;8.29;100.00
55679;BME280;41573;51.446;-2.018;2023-01-26T15:27:33;98797.16;;;8.21;100.00
55679;BME280;41573;51.446;-2.018;2023-01-26T15:30:00;98838.84;;;7.96;100.00
55679;BME280;41573;51.446;-2.018;2023-01-26T15:32:28;98887.34;;;7.74;100.00
55679;BME280;41573;51.446;-2.018;2023-01-26T15:37:32;98909.28;;;7.03;100.00
55679;BME280;41573;51.446;-2.018;2023-01-26T15:40:01;98910.63;;;6.72;100.00
55679;BME280;41573;51.446;-2.018;2023-01-26T15:42:32;98881.41;;;6.73;100.00
55679;BME280;41573;51.446;-2.018;2023-01-26T15:44:57;98828.38;;;6.88;100.00
55679;BME280;41573;51.446;-2.018;2023-01-26T15:47:30;98808.88;;;6.89;100.00
55679;BME280;41573;51.446;-2.018;2023-01-26T15:49:58;98796.81;;;6.85;100.00
55679;BME280;41573;51.446;-2.018;2023-01-26T15:52:26;98785.00;;;6.78;100.00
55679;BME280;41573;51.446;-2.018;2023-01-26T15:54:59;98777.91;;;6.54;100.00
55679;BME280;41573;51.446;-2.018;2023-01-26T15:57:27;98784.31;;;6.38;100.00
55679;BME280;41573;51.446;-2.018;2023-01-26T15:59:54;98766.56;;;6.28;100.00
55679;BME280;41573;51.446;-2.018;2023-01-26T16:02:20;98746.09;;;6.18;100.00
55679;BME280;41573;51.446;-2.018;2023-01-26T16:04:46;98737.22;;;6.07;100.00
55679;BME280;41573;51.446;-2.018;2023-01-26T16:07:13;98742.09;;;6.00;100.00
55679;BME280;41573;51.446;-2.018;2023-01-26T16:09:40;98736.38;;;5.93;100.00
55679;BME280;41573;51.446;-2.018;2023-01-26T16:12:11;98723.59;;;5.87;100.00
55679;BME280;41573;51.446;-2.018;2023-01-26T16:14:38;98713.56;;;5.79;100.00
55679;BME280;41573;51.446;-2.018;2023-01-26T16:17:13;98699.81;;;5.74;100.00
55679;BME280;41573;51.446;-2.018;2023-01-26T16:19:40;98693.69;;;5.74;100.00
55679;BME280;41573;51.446;-2.018;2023-01-26T16:22:07;98693.16;;;5.68;100.00
55679;BME280;41573;51.446;-2.018;2023-01-26T16:24:33;98682.09;;;5.63;100.00
55679;BME280;41573;51.446;-2.018;2023-01-26T16:26:58;98675.97;;;5.63;100.00
55679;BME280;41573;51.446;-2.018;2023-01-26T16:29:24;98673.75;;;5.57;100.00
55679;BME280;41573;51.446;-2.018;2023-01-26T16:31:49;98665.84;;;5.57;100.00
55679;BME280;41573;51.446;-2.018;2023-01-26T16:34:15;98666.06;;;5.53;100.00
55679;BME280;41573;51.446;-2.018;2023-01-26T16:36:40;98654.13;;;5.48;100.00
55679;BME280;41573;51.446;-2.018;2023-01-26T16:39:06;98678.53;;;5.39;100.00
55679;BME280;41573;51.446;-2.018;2023-01-26T16:41:32;98661.22;;;5.34;100.00
55679;BME280;41573;51.446;-2.018;2023-01-26T16:43:59;98643.91;;;5.30;100.00
55679;BME280;41573;51.446;-2.018;2023-01-26T16:46:27;98660.16;;;5.24;100.00
55679;BME280;41573;51.446;-2.018;2023-01-26T16:48:53;98667.56;;;5.19;100.00
55679;BME280;41573;51.446;-2.018;2023-01-26T16:53:54;98689.06;;;5.13;100.00
55679;BME280;41573;51.446;-2.018;2023-01-26T16:56:20;98723.06;;;5.05;100.00
55679;BME280;41573;51.446;-2.018;2023-01-26T16:58:49;98746.06;;;5.03;100.00
55679;BME280;41573;51.446;-2.018;2023-01-26T17:01:19;98752.69;;;4.95;100.00
55679;BME280;41573;51.446;-2.018;2023-01-26T17:03:48;98771.78;;;4.86;100.00
55679;BME280;41573;51.446;-2.018;2023-01-26T17:06:15;98785.69;;;4.88;100.00
55679;BME280;41573;51.446;-2.018;2023-01-26T17:08:44;98780.19;;;4.78;100.00
55679;BME280;41573;51.446;-2.018;2023-01-26T17:11:38;98799.69;;;4.76;100.00
55679;BME280;41573;51.446;-2.018;2023-01-26T17:14:04;98798.94;;;4.74;100.00
55679;BME280;41573;51.446;-2.018;2023-01-26T17:16:32;98804.44;;;4.71;100.00
55679;BME280;41573;51.446;-2.018;2023-01-26T17:19:02;98791.50;;;4.66;100.00
